עמוד ראשי
METAR-TAF:

METAR-TAF

שדות תעופה :

Bluefields, ניקרגואה

קו רוחב: 12-00N, קו אורך: 083-46W, גובה: 5מטר

תצפית מזג אוויר נוכחית

הדו"ח נערך לפני 8 שעות ו 34דקות, בשעה 23:00 UTC
רוח 4קשר מכיוון מזרח/צפון-מזרח
טמפרטורת 30 צלסיוס
לחות 79%
לחץ 1010 hPa
ראות 10 קילומטר או יותר
מעט עננים בגובה 2300רגל

METAR: MNBL 262300Z 07004KT 9999 FEW023 30/26 Q1010

זמן: 01:34 (07:34 UTC)

תחזית

הדו"ח נערך לפני 10 שעות ו 34דקות, בשעה 21:00 UTC
תחזית בתוקף מ 27 ב 00 UTC עד 27 ב 24 UTC
רוח 8קשר מכיוון מזרח/צפון-מזרח
ראות 10 קילומטר או יותר
עננים בינוניים בגובה 1700רגל
זמנית מ -
27 ב 06 UTC עד 27 ב 10 UTC
רוח קשר מכיוון צפון
ראות: 7000מטר
עננים בינוניים בגובה 1700רגל

TAF: MNBL 262100Z 2700/2724 07008KT 9999 BKN017 TEMPO 2706/2710 00000KT 7000 DZ/RA BKN017

תצפיות ותחזיות מזג אוויר לגבי יותר מ- 4,000 שדות תעופה ברחבי העולם. דוחות METAR ו- TAF.

התחנות הזמינות מסומנות בנקודות צהובות ואדומות על גבי המפה.

העבר את העכבר לנקודה הצבעונית על מנת לראות את שם התחנה.

לאחר מכן, לחץ כדי לראות את תוכן ואת תחזיות מזג האוויר.

כדי לשנות את המפה: לחץ על הכפתורים הירוקים עם הפלוס השחור כדי להתקרב; על הכפתור הירוק עם המקף כדי להתרחק; או בחיצים הירוקים למפות סמוכות.


METAR-TAF: